createdAt,value
2023-05-17T00:02:20.224Z,101155.03
2023-05-17T00:04:47.425Z,101148.94
2023-05-17T00:07:14.796Z,101144.72
2023-05-17T00:09:42.115Z,101143.88
2023-05-17T00:12:10.574Z,101140.47
2023-05-17T00:14:37.843Z,101141.34
2023-05-17T00:17:05.824Z,101148.59
2023-05-17T00:19:33.009Z,101149.66
2023-05-17T00:22:00.229Z,101149.66
2023-05-17T00:24:27.455Z,101145.38
2023-05-17T00:26:54.717Z,101143.03
2023-05-17T00:29:21.896Z,101145.59
2023-05-17T00:31:49.055Z,101151.09
2023-05-17T00:34:16.253Z,101147.72
2023-05-17T00:36:43.487Z,101151.28
2023-05-17T00:39:10.826Z,101151.47
2023-05-17T00:41:38.394Z,101157.66
2023-05-17T00:44:05.717Z,101149.75
2023-05-17T00:46:33.857Z,101149.03
2023-05-17T00:49:01.154Z,101153.47
2023-05-17T00:51:28.636Z,101151.94
2023-05-17T00:53:55.939Z,101149.31
2023-05-17T00:56:23.859Z,101153.66
2023-05-17T00:58:51.320Z,101152.09
2023-05-17T01:01:18.495Z,101149.50
2023-05-17T01:03:46.451Z,101146.16
2023-05-17T01:06:14.392Z,101143.53
2023-05-17T01:08:42.538Z,101158.28
2023-05-17T01:11:24.163Z,101155.94
2023-05-17T01:14:02.770Z,101148.06
2023-05-17T01:16:47.508Z,101157.88
2023-05-17T01:19:37.028Z,101151.03
2023-05-17T01:22:09.856Z,101149.38
2023-05-17T01:24:53.554Z,101154.72
2023-05-17T01:27:21.503Z,101161.72
2023-05-17T01:29:49.678Z,101160.03
2023-05-17T01:32:17.393Z,101167.84
2023-05-17T01:34:44.926Z,101172.28
2023-05-17T01:37:12.377Z,101171.47
2023-05-17T01:39:40.430Z,101166.50
2023-05-17T01:42:22.591Z,101180.56
2023-05-17T01:45:12.787Z,101181.59
2023-05-17T01:47:45.776Z,101183.31
2023-05-17T01:50:15.288Z,101177.22
2023-05-17T01:52:52.566Z,101179.03
2023-05-17T01:55:27.110Z,101178.28
2023-05-17T01:58:00.083Z,101185.25
2023-05-17T02:00:31.239Z,101180.03
2023-05-17T02:02:58.579Z,101189.50
2023-05-17T02:05:26.205Z,101182.63
2023-05-17T02:07:53.612Z,101186.19
2023-05-17T02:10:20.853Z,101176.56
2023-05-17T02:12:48.190Z,101181.03
2023-05-17T02:15:18.623Z,101174.13
2023-05-17T02:17:46.084Z,101168.94
2023-05-17T02:20:13.682Z,101183.69
2023-05-17T02:22:40.889Z,101180.19
2023-05-17T02:25:08.667Z,101185.28
2023-05-17T02:27:37.268Z,101170.41
2023-05-17T02:30:05.436Z,101167.69
2023-05-17T02:32:33.181Z,101170.09
2023-05-17T02:35:00.703Z,101166.56
2023-05-17T02:37:28.016Z,101160.41
2023-05-17T02:39:55.521Z,101161.13
2023-05-17T02:42:22.755Z,101161.06
2023-05-17T02:44:52.928Z,101168.75
2023-05-17T02:47:23.619Z,101181.75
2023-05-17T02:49:51.051Z,101166.69
2023-05-17T02:52:18.289Z,101164.84
2023-05-17T02:54:45.574Z,101170.84
2023-05-17T02:57:12.892Z,101169.88
2023-05-17T02:59:40.112Z,101169.06
2023-05-17T03:02:07.314Z,101168.97
2023-05-17T03:04:34.693Z,101177.56
2023-05-17T03:07:01.931Z,101172.19
2023-05-17T03:09:30.213Z,101177.38
2023-05-17T03:11:58.481Z,101192.09
2023-05-17T03:14:25.721Z,101181.53
2023-05-17T03:16:52.920Z,101188.53
2023-05-17T03:19:20.411Z,101200.00
2023-05-17T03:21:47.749Z,101189.56
2023-05-17T03:24:14.946Z,101189.66
2023-05-17T03:26:42.240Z,101193.28
2023-05-17T03:29:09.522Z,101201.16
2023-05-17T03:31:36.759Z,101196.03
2023-05-17T03:34:04.007Z,101198.66
2023-05-17T03:36:34.481Z,101197.88
2023-05-17T03:39:01.741Z,101202.97
2023-05-17T03:41:28.972Z,101197.69
2023-05-17T03:43:56.210Z,101212.44
2023-05-17T03:46:23.605Z,101214.13
2023-05-17T03:48:51.261Z,101213.91
2023-05-17T03:51:18.665Z,101220.84
2023-05-17T03:53:45.914Z,101227.75
2023-05-17T03:56:13.261Z,101215.53
2023-05-17T03:58:40.457Z,101226.03
2023-05-17T04:01:07.718Z,101229.56
2023-05-17T04:03:35.050Z,101227.94
2023-05-17T04:06:06.944Z,101229.81
2023-05-17T04:08:35.052Z,101250.72
2023-05-17T04:11:10.213Z,101250.78
2023-05-17T04:13:37.673Z,101253.41
2023-05-17T04:16:05.244Z,101250.91
2023-05-17T04:18:36.034Z,101243.09
2023-05-17T04:21:03.942Z,101253.47
2023-05-17T04:23:32.580Z,101257.66
2023-05-17T04:25:59.964Z,101255.88
2023-05-17T04:28:27.434Z,101249.03
2023-05-17T04:30:56.152Z,101262.06
2023-05-17T04:33:24.374Z,101262.88
2023-05-17T04:35:54.626Z,101261.88
2023-05-17T04:38:22.031Z,101270.59
2023-05-17T04:40:49.268Z,101274.16
2023-05-17T04:43:16.694Z,101269.66
2023-05-17T04:45:43.865Z,101274.03
2023-05-17T04:48:11.560Z,101277.22
2023-05-17T04:50:38.972Z,101274.19
2023-05-17T04:53:06.213Z,101292.44
2023-05-17T04:55:33.455Z,101298.47
2023-05-17T04:58:00.722Z,101295.00
2023-05-17T05:00:28.058Z,101310.66
2023-05-17T05:03:00.336Z,101305.38
2023-05-17T05:05:27.958Z,101312.28
2023-05-17T05:07:56.177Z,101317.75
2023-05-17T05:10:23.935Z,101320.38
2023-05-17T05:12:51.339Z,101323.63
2023-05-17T05:15:18.795Z,101325.19
2023-05-17T05:17:46.348Z,101327.63
2023-05-17T05:20:13.935Z,101336.34
2023-05-17T05:22:41.255Z,101338.81
2023-05-17T05:25:09.346Z,101329.91
2023-05-17T05:27:36.789Z,101330.59
2023-05-17T05:30:04.428Z,101329.47
2023-05-17T05:32:31.884Z,101333.56
2023-05-17T05:34:59.794Z,101333.19
2023-05-17T05:37:27.288Z,101339.16
2023-05-17T05:40:03.505Z,101348.06
2023-05-17T05:42:31.215Z,101347.41
2023-05-17T05:44:59.581Z,101358.28
2023-05-17T05:47:26.814Z,101365.63
2023-05-17T05:49:54.109Z,101375.56
2023-05-17T05:52:21.634Z,101365.63
2023-05-17T05:54:48.947Z,101373.91
2023-05-17T05:57:16.100Z,101367.81
2023-05-17T05:59:43.680Z,101363.78
2023-05-17T06:02:13.736Z,101378.59
2023-05-17T06:04:45.569Z,101371.44
2023-05-17T06:07:14.949Z,101369.53
2023-05-17T06:09:43.675Z,101381.81
2023-05-17T06:12:11.000Z,101391.22
2023-05-17T06:14:39.882Z,101391.78
2023-05-17T06:17:07.490Z,101385.34
2023-05-17T06:19:35.423Z,101377.72
2023-05-17T06:22:03.356Z,101386.22
2023-05-17T06:24:30.879Z,101389.44
2023-05-17T06:26:58.589Z,101399.41
2023-05-17T06:29:26.560Z,101400.03
2023-05-17T06:31:56.475Z,101398.47
2023-05-17T06:34:24.667Z,101405.84
2023-05-17T06:36:52.568Z,101400.72
2023-05-17T06:39:20.424Z,101405.16
2023-05-17T06:41:48.270Z,101402.72
2023-05-17T06:44:15.622Z,101398.97
2023-05-17T06:46:43.463Z,101404.63
2023-05-17T06:49:11.357Z,101395.88
2023-05-17T06:51:38.664Z,101400.22
2023-05-17T06:54:06.278Z,101403.78
2023-05-17T06:56:36.476Z,101413.28
2023-05-17T06:59:04.467Z,101403.56
2023-05-17T07:01:32.068Z,101408.06
2023-05-17T07:03:59.934Z,101403.50
2023-05-17T07:06:28.329Z,101401.72
2023-05-17T07:08:56.470Z,101425.28
2023-05-17T07:11:24.172Z,101424.06
2023-05-17T07:13:53.558Z,101424.91
2023-05-17T07:16:22.172Z,101418.50
2023-05-17T07:18:49.846Z,101422.66
2023-05-17T07:21:18.118Z,101419.75
2023-05-17T07:23:45.495Z,101414.75
2023-05-17T07:26:13.516Z,101419.00
2023-05-17T07:28:43.957Z,101420.09
2023-05-17T07:31:11.617Z,101422.25
2023-05-17T07:33:39.484Z,101435.03
2023-05-17T07:36:07.264Z,101423.78
2023-05-17T07:38:35.870Z,101425.13
2023-05-17T07:41:04.413Z,101431.19
2023-05-17T07:43:32.816Z,101441.22
2023-05-17T07:46:24.293Z,101438.13
2023-05-17T07:48:52.996Z,101457.00
2023-05-17T07:52:11.296Z,101463.19
2023-05-17T07:55:06.026Z,101472.97
2023-05-17T07:57:33.478Z,101468.44
2023-05-17T08:00:01.051Z,101468.47
2023-05-17T08:02:28.634Z,101479.31
2023-05-17T08:04:56.571Z,101477.88
2023-05-17T08:07:24.692Z,101482.16
2023-05-17T08:09:52.131Z,101478.44
2023-05-17T08:12:21.443Z,101477.94
2023-05-17T08:14:49.482Z,101493.69
2023-05-17T08:17:17.227Z,101492.44
2023-05-17T08:19:44.833Z,101493.88
2023-05-17T08:22:12.299Z,101493.34
2023-05-17T08:24:39.783Z,101498.66
2023-05-17T08:27:07.212Z,101477.31
2023-05-17T08:29:34.666Z,101493.53
2023-05-17T08:32:02.358Z,101489.75
2023-05-17T08:34:29.983Z,101485.94
2023-05-17T08:36:58.150Z,101497.41
2023-05-17T08:39:26.041Z,101493.59
2023-05-17T08:41:54.526Z,101490.88
2023-05-17T08:44:23.692Z,101495.13
2023-05-17T08:46:53.869Z,101502.44
2023-05-17T08:49:26.035Z,101510.25
2023-05-17T08:51:54.519Z,101514.28
2023-05-17T08:54:23.206Z,101509.38
2023-05-17T08:56:54.660Z,101509.88
2023-05-17T08:59:22.236Z,101500.25
2023-05-17T09:01:51.450Z,101496.59
2023-05-17T09:04:20.390Z,101491.53
2023-05-17T09:06:47.760Z,101505.72
2023-05-17T09:09:15.663Z,101500.06
2023-05-17T09:11:43.014Z,101505.00
2023-05-17T09:15:13.066Z,101495.97
2023-05-17T09:17:41.334Z,101494.09
2023-05-17T09:20:10.253Z,101495.63
2023-05-17T09:22:38.445Z,101492.03
2023-05-17T09:25:06.044Z,101491.25
2023-05-17T09:27:33.334Z,101483.72
2023-05-17T09:30:01.226Z,101494.63
2023-05-17T09:32:28.599Z,101498.22
2023-05-17T09:34:59.408Z,101500.41
2023-05-17T09:37:26.755Z,101505.16
2023-05-17T09:39:55.183Z,101508.25
2023-05-17T09:42:26.298Z,101496.00
2023-05-17T09:44:58.464Z,101501.09
2023-05-17T09:47:30.024Z,101506.09
2023-05-17T09:50:00.424Z,101507.63
2023-05-17T09:52:31.835Z,101504.44
2023-05-17T09:54:59.988Z,101510.66
2023-05-17T09:57:28.808Z,101511.41
2023-05-17T09:59:57.479Z,101509.38
2023-05-17T10:02:29.113Z,101514.81
2023-05-17T10:04:58.424Z,101507.75
2023-05-17T10:07:27.330Z,101511.03
2023-05-17T10:09:55.988Z,101508.53
2023-05-17T10:12:25.711Z,101507.78
2023-05-17T10:14:56.303Z,101512.72
2023-05-17T10:17:24.613Z,101506.47
2023-05-17T10:19:53.329Z,101504.19
2023-05-17T10:22:23.752Z,101521.13
2023-05-17T10:24:52.029Z,101520.53
2023-05-17T10:27:20.909Z,101507.53
2023-05-17T10:29:50.157Z,101512.16
2023-05-17T10:32:21.535Z,101514.66
2023-05-17T10:34:58.052Z,101511.16
2023-05-17T10:37:33.948Z,101518.69
2023-05-17T10:40:01.288Z,101519.81
2023-05-17T10:42:28.929Z,101518.38
2023-05-17T10:44:56.806Z,101527.50
2023-05-17T10:47:32.062Z,101531.00
2023-05-17T10:49:59.281Z,101530.97
2023-05-17T10:52:27.400Z,101527.16
2023-05-17T10:54:55.929Z,101530.81
2023-05-17T10:57:49.805Z,101540.75
2023-05-17T11:00:29.527Z,101543.66
2023-05-17T11:03:15.345Z,101547.16
2023-05-17T11:05:45.452Z,101537.91
2023-05-17T11:08:17.407Z,101536.22
2023-05-17T11:11:10.871Z,101542.19
2023-05-17T11:13:46.180Z,101540.78
2023-05-17T11:16:19.303Z,101531.66
2023-05-17T11:18:51.155Z,101528.47
2023-05-17T11:21:19.877Z,101530.41
2023-05-17T11:23:48.612Z,101533.72
2023-05-17T11:26:38.808Z,101533.84
2023-05-17T11:29:11.563Z,101537.25
2023-05-17T11:31:45.213Z,101539.63
2023-05-17T11:34:13.001Z,101543.16
2023-05-17T11:36:52.545Z,101528.88
2023-05-17T11:39:27.550Z,101520.31
2023-05-17T11:41:57.374Z,101525.94
2023-05-17T11:44:35.112Z,101530.84
2023-05-17T11:47:10.848Z,101533.69
2023-05-17T11:49:39.772Z,101524.03
2023-05-17T11:52:08.036Z,101523.41
2023-05-17T11:54:39.090Z,101525.09
2023-05-17T11:57:06.699Z,101529.56
2023-05-17T11:59:40.844Z,101521.16
2023-05-17T12:02:08.784Z,101527.66
2023-05-17T12:04:37.875Z,101527.81
2023-05-17T12:07:08.948Z,101532.19
2023-05-17T12:09:37.406Z,101542.03
2023-05-17T12:12:58.595Z,101550.97
2023-05-17T12:15:26.296Z,101539.59
2023-05-17T12:17:54.476Z,101534.91
2023-05-17T12:20:56.797Z,101535.41
2023-05-17T12:23:30.163Z,101534.00
2023-05-17T12:26:09.675Z,101527.97
2023-05-17T12:28:43.335Z,101536.00
2023-05-17T12:31:21.777Z,101530.34
2023-05-17T12:33:50.702Z,101542.91
2023-05-17T12:36:18.310Z,101537.84
2023-05-17T12:38:47.140Z,101525.28
2023-05-17T12:41:16.595Z,101528.78
2023-05-17T12:43:45.232Z,101529.38
2023-05-17T12:46:18.921Z,101531.44
2023-05-17T12:48:47.416Z,101532.56
2023-05-17T12:51:16.435Z,101537.94
2023-05-17T12:53:48.599Z,101529.47
2023-05-17T12:56:28.328Z,101532.97
2023-05-17T12:59:07.695Z,101529.59
2023-05-17T13:01:36.526Z,101537.97
2023-05-17T13:04:04.294Z,101542.69
2023-05-17T13:06:51.631Z,101539.13
2023-05-17T13:09:23.849Z,101525.34
2023-05-17T13:11:55.458Z,101532.84
2023-05-17T13:14:53.031Z,101527.09
2023-05-17T13:17:35.930Z,101523.97
2023-05-17T13:20:04.407Z,101529.78
2023-05-17T13:22:33.218Z,101540.66
2023-05-17T13:25:00.469Z,101540.75
2023-05-17T13:27:28.170Z,101544.84
2023-05-17T13:29:55.577Z,101538.84
2023-05-17T13:32:24.982Z,101542.03
2023-05-17T13:34:52.930Z,101529.66
2023-05-17T13:37:22.183Z,101533.03
2023-05-17T13:39:49.902Z,101544.59
2023-05-17T13:42:17.502Z,101532.88
2023-05-17T13:44:45.089Z,101524.28
2023-05-17T13:47:14.796Z,101540.22
2023-05-17T13:49:43.059Z,101539.31
2023-05-17T13:52:12.656Z,101535.84
2023-05-17T13:54:40.679Z,101554.59
2023-05-17T13:57:08.356Z,101531.69
2023-05-17T13:59:43.603Z,101534.41
2023-05-17T14:02:12.372Z,101534.03
2023-05-17T14:04:39.605Z,101540.34
2023-05-17T14:07:14.916Z,101542.28
2023-05-17T14:09:45.036Z,101549.09
2023-05-17T14:12:12.288Z,101555.88
2023-05-17T14:14:43.027Z,101551.97
2023-05-17T14:17:11.351Z,101554.25
2023-05-17T14:19:39.147Z,101546.47
2023-05-17T14:22:06.482Z,101556.47
2023-05-17T14:24:35.648Z,101564.72
2023-05-17T14:27:05.246Z,101582.72
2023-05-17T14:29:32.574Z,101571.03
2023-05-17T14:31:59.803Z,101566.50
2023-05-17T14:34:27.437Z,101572.47
2023-05-17T14:36:55.220Z,101573.59
2023-05-17T14:39:22.492Z,101570.19
2023-05-17T14:41:49.818Z,101579.91
2023-05-17T14:44:16.998Z,101579.00
2023-05-17T14:46:44.416Z,101583.63
2023-05-17T14:49:12.102Z,101592.41
2023-05-17T14:51:39.658Z,101587.34
2023-05-17T14:54:06.986Z,101604.06
2023-05-17T14:56:36.978Z,101606.03
2023-05-17T14:59:04.156Z,101599.78
2023-05-17T15:01:31.733Z,101603.22
2023-05-17T15:04:00.105Z,101608.19
2023-05-17T15:06:28.840Z,101608.44
2023-05-17T15:08:56.188Z,101600.88
2023-05-17T15:11:23.742Z,101602.00
2023-05-17T15:13:52.056Z,101598.44
2023-05-17T15:16:19.604Z,101593.44
2023-05-17T15:18:47.265Z,101585.78
2023-05-17T15:21:14.742Z,101595.44
2023-05-17T15:23:42.410Z,101594.38
2023-05-17T15:26:09.650Z,101594.47
2023-05-17T15:28:36.923Z,101603.59
2023-05-17T15:31:10.611Z,101610.34
2023-05-17T15:33:43.336Z,101611.16
2023-05-17T15:36:13.145Z,101608.00
2023-05-17T15:38:40.597Z,101619.25
2023-05-17T15:41:10.976Z,101604.19
2023-05-17T15:43:38.484Z,101610.63
2023-05-17T15:46:05.737Z,101615.47
2023-05-17T15:48:34.039Z,101624.59
2023-05-17T15:51:01.599Z,101626.56
2023-05-17T15:53:30.474Z,101631.56
2023-05-17T15:55:57.720Z,101618.22
2023-05-17T15:58:27.907Z,101607.69
2023-05-17T16:00:55.359Z,101611.97
2023-05-17T16:03:22.548Z,101621.00
2023-05-17T16:10:09.416Z,101605.06
2023-05-17T16:12:36.575Z,101609.38
2023-05-17T16:15:03.992Z,101607.53
2023-05-17T16:17:31.429Z,101611.81
2023-05-17T16:19:58.858Z,101622.44
2023-05-17T16:22:26.297Z,101618.97
2023-05-17T16:24:57.082Z,101624.69
2023-05-17T16:27:25.711Z,101620.19
2023-05-17T16:29:52.914Z,101632.53
2023-05-17T16:32:20.184Z,101636.47
2023-05-17T16:34:47.378Z,101638.28
2023-05-17T16:37:14.646Z,101631.16
2023-05-17T16:39:41.887Z,101641.50
2023-05-17T16:42:10.244Z,101635.69
2023-05-17T16:44:37.513Z,101649.09
2023-05-17T16:47:05.025Z,101646.28
2023-05-17T16:49:32.318Z,101640.28
2023-05-17T16:51:59.477Z,101635.94
2023-05-17T16:54:28.914Z,101639.00
2023-05-17T16:56:57.052Z,101642.00
2023-05-17T16:59:24.446Z,101647.06
2023-05-17T17:01:51.989Z,101643.34
2023-05-17T17:04:19.433Z,101643.13
2023-05-17T17:06:46.733Z,101651.16
2023-05-17T17:09:14.202Z,101649.50
2023-05-17T17:11:41.478Z,101647.03
2023-05-17T17:14:09.009Z,101653.41
2023-05-17T17:16:36.217Z,101649.97
2023-05-17T17:19:03.803Z,101655.31
2023-05-17T17:21:36.264Z,101651.16
2023-05-17T17:24:06.789Z,101652.91
2023-05-17T17:26:38.025Z,101650.97
2023-05-17T17:29:05.592Z,101647.03
2023-05-17T17:31:32.786Z,101645.22
2023-05-17T17:34:00.127Z,101648.25
2023-05-17T17:36:27.368Z,101646.63
2023-05-17T17:38:54.603Z,101654.19
2023-05-17T17:41:23.170Z,101654.06
2023-05-17T17:43:50.407Z,101657.31
2023-05-17T17:46:17.626Z,101663.25
2023-05-17T17:48:45.128Z,101663.19
2023-05-17T17:51:12.355Z,101661.97
2023-05-17T17:53:41.333Z,101659.13
2023-05-17T17:56:08.638Z,101661.94
2023-05-17T17:58:36.576Z,101672.66
2023-05-17T18:01:04.024Z,101673.22
2023-05-17T18:03:32.305Z,101671.88
2023-05-17T18:05:59.543Z,101678.41
2023-05-17T18:08:26.919Z,101675.50
2023-05-17T18:10:54.098Z,101685.13
2023-05-17T18:13:21.343Z,101684.78
2023-05-17T18:15:48.559Z,101687.97
2023-05-17T18:18:16.592Z,101692.19
2023-05-17T18:20:43.838Z,101692.78
2023-05-17T18:23:11.086Z,101685.72
2023-05-17T18:25:38.670Z,101698.50
2023-05-17T18:28:08.081Z,101697.38
2023-05-17T18:30:36.188Z,101704.06
2023-05-17T18:37:27.745Z,101721.25
2023-05-17T18:39:55.281Z,101716.53
2023-05-17T18:42:24.906Z,101720.41
2023-05-17T18:44:52.169Z,101717.53
2023-05-17T18:47:19.722Z,101733.94
2023-05-17T18:49:48.002Z,101739.72
2023-05-17T18:52:15.341Z,101746.31
2023-05-17T18:54:42.624Z,101743.19
2023-05-17T18:57:11.937Z,101745.34
2023-05-17T18:59:39.237Z,101749.25
2023-05-17T19:02:06.588Z,101745.09
2023-05-17T19:04:33.917Z,101752.50
2023-05-17T19:07:01.295Z,101762.50
2023-05-17T19:09:28.572Z,101759.38
2023-05-17T19:11:57.869Z,101765.22
2023-05-17T19:14:25.195Z,101774.44
2023-05-17T19:16:56.663Z,101785.34
2023-05-17T19:19:24.724Z,101777.63
2023-05-17T19:21:52.036Z,101782.44
2023-05-17T19:24:19.409Z,101778.22
2023-05-17T19:26:46.683Z,101788.16
2023-05-17T19:29:13.896Z,101797.28
2023-05-17T19:31:41.236Z,101801.88
2023-05-17T19:34:08.511Z,101803.88
2023-05-17T19:36:35.787Z,101809.44
2023-05-17T19:39:03.075Z,101803.50
2023-05-17T19:41:30.499Z,101804.56
2023-05-17T19:43:57.748Z,101803.84
2023-05-17T19:46:25.081Z,101819.94
2023-05-17T19:48:53.018Z,101814.97
2023-05-17T19:51:20.275Z,101820.53
2023-05-17T19:53:53.326Z,101825.06
2023-05-17T19:56:24.094Z,101828.75
2023-05-17T19:58:52.325Z,101832.50
2023-05-17T20:01:21.562Z,101828.34
2023-05-17T20:03:48.872Z,101838.28
2023-05-17T20:06:16.415Z,101835.94
2023-05-17T20:08:43.725Z,101842.41
2023-05-17T20:11:11.112Z,101847.00
2023-05-17T20:13:41.120Z,101849.81
2023-05-17T20:16:12.704Z,101854.34
2023-05-17T20:18:44.074Z,101850.19
2023-05-17T20:21:15.049Z,101856.53
2023-05-17T20:23:42.392Z,101850.56
2023-05-17T20:26:16.256Z,101862.03
2023-05-17T20:28:44.461Z,101863.00
2023-05-17T20:31:12.189Z,101860.56
2023-05-17T20:33:39.466Z,101862.47
2023-05-17T20:36:06.741Z,101864.34
2023-05-17T20:38:34.084Z,101867.09
2023-05-17T20:41:01.539Z,101859.31
2023-05-17T20:43:29.074Z,101869.97
2023-05-17T20:45:56.497Z,101877.13
2023-05-17T20:48:23.830Z,101882.53
2023-05-17T20:50:51.273Z,101876.56
2023-05-17T20:53:18.559Z,101882.88
2023-05-17T20:55:45.765Z,101885.59
2023-05-17T20:58:12.932Z,101891.94
2023-05-17T21:00:41.335Z,101889.47
2023-05-17T21:03:09.721Z,101889.59
2023-05-17T21:05:38.465Z,101885.31
2023-05-17T21:08:07.366Z,101884.56
2023-05-17T21:10:36.141Z,101891.63
2023-05-17T21:13:03.398Z,101889.97
2023-05-17T21:15:30.856Z,101891.78
2023-05-17T21:17:58.231Z,101891.94
2023-05-17T21:20:28.313Z,101893.03
2023-05-17T21:22:55.657Z,101894.81
2023-05-17T21:25:22.889Z,101892.25
2023-05-17T21:27:50.397Z,101894.91
2023-05-17T21:30:17.660Z,101894.13
2023-05-17T21:32:45.010Z,101896.91
2023-05-17T21:35:12.293Z,101894.44
2023-05-17T21:37:40.173Z,101895.34
2023-05-17T21:40:09.760Z,101900.78
2023-05-17T21:42:37.048Z,101895.53
2023-05-17T21:45:08.574Z,101894.81
2023-05-17T21:47:36.163Z,101893.19
2023-05-17T21:50:04.487Z,101895.09
2023-05-17T21:52:31.680Z,101897.00
2023-05-17T21:54:58.884Z,101889.19
2023-05-17T21:57:26.157Z,101893.69
2023-05-17T21:59:53.316Z,101895.53
2023-05-17T22:02:20.742Z,101891.28
2023-05-17T22:04:48.003Z,101908.00
2023-05-17T22:08:05.716Z,101901.09
2023-05-17T22:27:54.906Z,101902.25
2023-05-17T22:34:42.355Z,101903.31
2023-05-17T22:37:12.805Z,101898.06
2023-05-17T22:39:41.062Z,101905.16
2023-05-17T22:46:21.491Z,101913.19
2023-05-17T22:48:50.118Z,101915.91
2023-05-17T22:51:18.596Z,101915.91
2023-05-17T22:53:45.860Z,101923.88
2023-05-17T22:56:13.020Z,101923.06
2023-05-17T22:58:40.384Z,101921.38
2023-05-17T23:01:07.643Z,101924.13
2023-05-17T23:03:35.204Z,101931.16
2023-05-17T23:06:03.358Z,101925.06
2023-05-17T23:08:31.331Z,101929.50
2023-05-17T23:10:58.896Z,101929.53
2023-05-17T23:13:26.245Z,101926.97
2023-05-17T23:15:53.916Z,101923.53
2023-05-17T23:18:21.619Z,101927.16
2023-05-17T23:20:49.137Z,101933.34
2023-05-17T23:23:16.520Z,101929.03
2023-05-17T23:25:48.329Z,101929.16
2023-05-17T23:28:15.694Z,101930.94
2023-05-17T23:30:44.498Z,101926.69
2023-05-17T23:33:11.808Z,101933.81
2023-05-17T23:35:43.206Z,101938.22
2023-05-17T23:38:10.590Z,101940.06
2023-05-17T23:40:38.082Z,101937.56
2023-05-17T23:43:05.843Z,101937.59
2023-05-17T23:45:33.723Z,101947.25
2023-05-17T23:48:01.145Z,101941.16
2023-05-17T23:50:28.416Z,101940.38
2023-05-17T23:52:56.059Z,101938.72
2023-05-17T23:55:23.285Z,101947.50
2023-05-17T23:57:50.621Z,101953.75
